<?xml version='1.0' encoding='UTF-8'?><gpx version="1.1" creator="JPX - https://github.com/jenetics/jpx" xmlns="http://www.topografix.com/GPX/1/1"><trk><trkseg><trkpt lat="40.306169177313286" lon="17.572592093484815"><ele>13.0</ele><time>2026-04-03T13:32:12Z</time></trkpt><trkpt lat="40.30617783291403" lon="17.572676117126022"><ele>13.0</ele><time>2026-04-03T13:32:15Z</time></trkpt><trkpt lat="40.3061743655399" lon="17.57276975570366"><ele>13.0</ele><time>2026-04-03T13:32:18Z</time></trkpt><trkpt lat="40.30617386061199" lon="17.57285878811414"><ele>13.0</ele><time>2026-04-03T13:32:21Z</time></trkpt><trkpt lat="40.30617273442743" lon="17.572944275217566"><ele>13.0</ele><time>2026-04-03T13:32:24Z</time></trkpt><trkpt lat="40.30617136243578" lon="17.57304519349739"><ele>13.0</ele><time>2026-04-03T13:32:28Z</time></trkpt><trkpt lat="40.306164082809715" lon="17.57313940429043"><ele>13.0</ele><time>2026-04-03T13:32:31Z</time></trkpt><trkpt lat="40.30616760840431" lon="17.573230859323345"><ele>12.999999999999998</ele><time>2026-04-03T13:32:34Z</time></trkpt><trkpt lat="40.3062658828545" lon="17.57322373350499"><ele>13.0</ele><time>2026-04-03T13:32:48Z</time></trkpt><trkpt lat="40.306359797621866" lon="17.573184097580413"><ele>13.0</ele><time>2026-04-03T13:32:50Z</time></trkpt><trkpt lat="40.30645279100355" lon="17.573122149119804"><ele>13.0</ele><time>2026-04-03T13:32:52Z</time></trkpt><trkpt lat="40.3065078294056" lon="17.573077219097055"><ele>12.999999999999998</ele><time>2026-04-03T13:32:54Z</time></trkpt><trkpt lat="40.306579115925025" lon="17.57304494908002"><ele>13.0</ele><time>2026-04-03T13:33:02.999Z</time></trkpt><trkpt lat="40.30671028091576" lon="17.573025455598646"><ele>12.999999999999998</ele><time>2026-04-03T13:33:06.999Z</time></trkpt><trkpt lat="40.30678080742354" lon="17.57300095095915"><ele>13.0</ele><time>2026-04-03T13:33:08.999Z</time></trkpt><trkpt lat="40.306855693648245" lon="17.57298503682367"><ele>13.0</ele><time>2026-04-03T13:33:10.999Z</time></trkpt><trkpt lat="40.306932430100574" lon="17.57298044844303"><ele>13.0</ele><time>2026-04-03T13:33:12.999Z</time></trkpt><trkpt lat="40.307022188480914" lon="17.573007674989718"><ele>12.999999999999998</ele><time>2026-04-03T13:33:14.999Z</time></trkpt><trkpt lat="40.30712508262093" lon="17.57303791832592"><ele>13.0</ele><time>2026-04-03T13:33:16.999Z</time></trkpt><trkpt lat="40.30723997330013" lon="17.57307326325719"><ele>13.0</ele><time>2026-04-03T13:33:18.999Z</time></trkpt><trkpt lat="40.307350500206496" lon="17.57311225212672"><ele>13.0</ele><time>2026-04-03T13:33:20.999Z</time></trkpt><trkpt lat="40.30746106275785" lon="17.57316392762819"><ele>13.0</ele><time>2026-04-03T13:33:23Z</time></trkpt><trkpt lat="40.30757566507018" lon="17.573220008548542"><ele>13.0</ele><time>2026-04-03T13:33:25Z</time></trkpt><trkpt lat="40.307688221952205" lon="17.573276168309725"><ele>12.999999999999998</ele><time>2026-04-03T13:33:27Z</time></trkpt><trkpt lat="40.307749374778446" lon="17.57330647696301"><ele>13.0</ele><time>2026-04-03T13:33:28Z</time></trkpt><trkpt lat="40.307808691029685" lon="17.573335207924536"><ele>13.0</ele><time>2026-04-03T13:33:29Z</time></trkpt><trkpt lat="40.307867919545075" lon="17.573365727932877"><ele>13.0</ele><time>2026-04-03T13:33:30Z</time></trkpt><trkpt lat="40.30798096607004" lon="17.573426755403297"><ele>12.999999999999998</ele><time>2026-04-03T13:33:32Z</time></trkpt><trkpt lat="40.3080406240406" lon="17.573455462089335"><ele>13.0</ele><time>2026-04-03T13:33:33Z</time></trkpt><trkpt lat="40.308155058100276" lon="17.57350917000365"><ele>12.75</ele><time>2026-04-03T13:33:35Z</time></trkpt><trkpt lat="40.30826463445277" lon="17.573569631103748"><ele>12.5</ele><time>2026-04-03T13:33:37Z</time></trkpt><trkpt lat="40.308372705594145" lon="17.573628109755116"><ele>12.25</ele><time>2026-04-03T13:33:39Z</time></trkpt><trkpt lat="40.30847541756783" lon="17.573674463035164"><ele>12.0</ele><time>2026-04-03T13:33:41Z</time></trkpt><trkpt lat="40.30857501338634" lon="17.573721036370063"><ele>12.0</ele><time>2026-04-03T13:33:43Z</time></trkpt><trkpt lat="40.30868727510994" lon="17.573747765337508"><ele>12.0</ele><time>2026-04-03T13:33:45Z</time></trkpt><trkpt lat="40.30878878514217" lon="17.57378204787215"><ele>12.0</ele><time>2026-04-03T13:33:47Z</time></trkpt><trkpt lat="40.30885139077166" lon="17.573804043692768"><ele>12.0</ele><time>2026-04-03T13:33:48Z</time></trkpt><trkpt lat="40.30896130048125" lon="17.57382600752487"><ele>12.0</ele><time>2026-04-03T13:33:50Z</time></trkpt><trkpt lat="40.3090682896966" lon="17.57384284186182"><ele>11.8</ele><time>2026-04-03T13:33:52Z</time></trkpt><trkpt lat="40.309171487139615" lon="17.573860488919724"><ele>11.6</ele><time>2026-04-03T13:33:54Z</time></trkpt><trkpt lat="40.309278993587995" lon="17.573866810597025"><ele>11.4</ele><time>2026-04-03T13:33:56Z</time></trkpt><trkpt lat="40.30938216483775" lon="17.573875317931556"><ele>11.200000000000001</ele><time>2026-04-03T13:33:58Z</time></trkpt><trkpt lat="40.3094824330162" lon="17.573882216316193"><ele>11.0</ele><time>2026-04-03T13:34:00Z</time></trkpt><trkpt lat="40.3095843776925" lon="17.57388826061615"><ele>11.0</ele><time>2026-04-03T13:34:02Z</time></trkpt><trkpt lat="40.30968425935338" lon="17.573899846500794"><ele>11.0</ele><time>2026-04-03T13:34:04Z</time></trkpt><trkpt lat="40.30978719796085" lon="17.573905949145818"><ele>11.0</ele><time>2026-04-03T13:34:06Z</time></trkpt><trkpt lat="40.30988964401308" lon="17.57391112649345"><ele>11.0</ele><time>2026-04-03T13:34:08Z</time></trkpt><trkpt lat="40.30998872474126" lon="17.573917344327505"><ele>11.0</ele><time>2026-04-03T13:34:10Z</time></trkpt><trkpt lat="40.31008973714228" lon="17.573931670431506"><ele>11.0</ele><time>2026-04-03T13:34:12Z</time></trkpt><trkpt lat="40.31019139589908" lon="17.573938455386863"><ele>11.0</ele><time>2026-04-03T13:34:14Z</time></trkpt><trkpt lat="40.31029329502797" lon="17.573946497067134"><ele>11.0</ele><time>2026-04-03T13:34:16Z</time></trkpt><trkpt lat="40.31039567461836" lon="17.57395679928552"><ele>11.0</ele><time>2026-04-03T13:34:18Z</time></trkpt><trkpt lat="40.31049499064691" lon="17.573964831918676"><ele>11.0</ele><time>2026-04-03T13:34:20Z</time></trkpt><trkpt lat="40.31060007225016" lon="17.57397554620386"><ele>11.0</ele><time>2026-04-03T13:34:22Z</time></trkpt><trkpt lat="40.31070043301029" lon="17.573984251498253"><ele>11.0</ele><time>2026-04-03T13:34:24Z</time></trkpt><trkpt lat="40.31079967447298" lon="17.57401019540689"><ele>11.0</ele><time>2026-04-03T13:34:26Z</time></trkpt><trkpt lat="40.31090102111383" lon="17.57400059414781"><ele>11.0</ele><time>2026-04-03T13:34:28Z</time></trkpt><trkpt lat="40.31100129598245" lon="17.574029347249528"><ele>11.0</ele><time>2026-04-03T13:34:30Z</time></trkpt><trkpt lat="40.31109883106119" lon="17.574020942838715"><ele>11.0</ele><time>2026-04-03T13:34:32Z</time></trkpt><trkpt lat="40.311193500848844" lon="17.574051117513562"><ele>11.0</ele><time>2026-04-03T13:34:34Z</time></trkpt><trkpt lat="40.31129134909451" lon="17.57406264831516"><ele>11.0</ele><time>2026-04-03T13:34:36Z</time></trkpt><trkpt lat="40.31138150703341" lon="17.574071389373938"><ele>11.0</ele><time>2026-04-03T13:34:38Z</time></trkpt><trkpt lat="40.31146791177915" lon="17.57407601885228"><ele>11.0</ele><time>2026-04-03T13:34:40Z</time></trkpt><trkpt lat="40.31155339409361" lon="17.57407314520924"><ele>10.833333333333332</ele><time>2026-04-03T13:34:42Z</time></trkpt><trkpt lat="40.311634551284286" lon="17.57406437225619"><ele>10.666666666666666</ele><time>2026-04-03T13:34:44Z</time></trkpt><trkpt lat="40.31172259023864" lon="17.57405350399396"><ele>10.5</ele><time>2026-04-03T13:34:46Z</time></trkpt><trkpt lat="40.31181099757297" lon="17.574039290937403"><ele>10.333333333333334</ele><time>2026-04-03T13:34:48Z</time></trkpt><trkpt lat="40.31190006393877" lon="17.57402633960305"><ele>10.166666666666668</ele><time>2026-04-03T13:34:50Z</time></trkpt><trkpt lat="40.31198428756293" lon="17.57402103662079"><ele>10.0</ele><time>2026-04-03T13:34:52Z</time></trkpt><trkpt lat="40.31206987240577" lon="17.57402183557445"><ele>10.0</ele><time>2026-04-03T13:34:54Z</time></trkpt><trkpt lat="40.31215514597491" lon="17.57402694966712"><ele>10.0</ele><time>2026-04-03T13:34:56Z</time></trkpt><trkpt lat="40.312240947115306" lon="17.574016411058988"><ele>10.0</ele><time>2026-04-03T13:34:58Z</time></trkpt><trkpt lat="40.31232398356135" lon="17.574030948125756"><ele>10.0</ele><time>2026-04-03T13:35:00Z</time></trkpt><trkpt lat="40.31240643495004" lon="17.574040125998962"><ele>10.0</ele><time>2026-04-03T13:35:02Z</time></trkpt><trkpt lat="40.31248870946867" lon="17.574055977720178"><ele>10.0</ele><time>2026-04-03T13:35:04Z</time></trkpt><trkpt lat="40.31256690434392" lon="17.574068542731222"><ele>10.166666666666668</ele><time>2026-04-03T13:35:06Z</time></trkpt><trkpt lat="40.31264324615745" lon="17.574076759312025"><ele>10.333333333333334</ele><time>2026-04-03T13:35:08Z</time></trkpt><trkpt lat="40.31272536670392" lon="17.574089148898814"><ele>10.5</ele><time>2026-04-03T13:35:09.999Z</time></trkpt><trkpt lat="40.312804144175296" lon="17.574109350794814"><ele>10.666666666666666</ele><time>2026-04-03T13:35:11.999Z</time></trkpt><trkpt lat="40.3128860082698" lon="17.574120231465727"><ele>10.833333333333332</ele><time>2026-04-03T13:35:13.999Z</time></trkpt><trkpt lat="40.31296645506389" lon="17.574135971026585"><ele>11.0</ele><time>2026-04-03T13:35:15.999Z</time></trkpt><trkpt lat="40.31305006726016" lon="17.574147430198817"><ele>11.5</ele><time>2026-04-03T13:35:17.999Z</time></trkpt><trkpt lat="40.31313286478277" lon="17.57416321498336"><ele>12.0</ele><time>2026-04-03T13:35:19.999Z</time></trkpt><trkpt lat="40.31321451475458" lon="17.57417619830915"><ele>12.5</ele><time>2026-04-03T13:35:21.999Z</time></trkpt><trkpt lat="40.31329578980635" lon="17.574178680051997"><ele>13.0</ele><time>2026-04-03T13:35:23.999Z</time></trkpt><trkpt lat="40.31337713726287" lon="17.57418492924934"><ele>13.500000000000002</ele><time>2026-04-03T13:35:26Z</time></trkpt><trkpt lat="40.31345652414365" lon="17.574187119374095"><ele>14.0</ele><time>2026-04-03T13:35:28Z</time></trkpt><trkpt lat="40.31353538164559" lon="17.574193314871387"><ele>14.0</ele><time>2026-04-03T13:35:30Z</time></trkpt><trkpt lat="40.313613819780656" lon="17.574192919680463"><ele>14.0</ele><time>2026-04-03T13:35:32Z</time></trkpt><trkpt lat="40.31368840655673" lon="17.574200820428917"><ele>14.0</ele><time>2026-04-03T13:35:34Z</time></trkpt><trkpt lat="40.313762501091524" lon="17.574214863422743"><ele>14.0</ele><time>2026-04-03T13:35:36Z</time></trkpt><trkpt lat="40.31382742225852" lon="17.574221737682876"><ele>14.0</ele><time>2026-04-03T13:35:38Z</time></trkpt><trkpt lat="40.313890805268784" lon="17.574243952749406"><ele>14.0</ele><time>2026-04-03T13:35:40Z</time></trkpt><trkpt lat="40.3139486067148" lon="17.574283035641333"><ele>14.0</ele><time>2026-04-03T13:35:42Z</time></trkpt><trkpt lat="40.3139993178598" lon="17.574336346808167"><ele>14.0</ele><time>2026-04-03T13:35:44Z</time></trkpt><trkpt lat="40.31405140187102" lon="17.57440382980424"><ele>14.0</ele><time>2026-04-03T13:35:46Z</time></trkpt><trkpt lat="40.31410239417884" lon="17.574469193466868"><ele>14.0</ele><time>2026-04-03T13:35:48Z</time></trkpt><trkpt lat="40.31415626893931" lon="17.57453382483344"><ele>14.0</ele><time>2026-04-03T13:35:50Z</time></trkpt><trkpt lat="40.31420554613695" lon="17.574601267404272"><ele>14.0</ele><time>2026-04-03T13:35:52Z</time></trkpt><trkpt lat="40.314256716377656" lon="17.574664376008183"><ele>14.0</ele><time>2026-04-03T13:35:54Z</time></trkpt><trkpt lat="40.31431235678317" lon="17.574718753552485"><ele>14.0</ele><time>2026-04-03T13:35:56Z</time></trkpt><trkpt lat="40.31436590844753" lon="17.57476737356191"><ele>14.000000000000002</ele><time>2026-04-03T13:35:58Z</time></trkpt><trkpt lat="40.314417475711785" lon="17.574815552391126"><ele>14.0</ele><time>2026-04-03T13:36:00Z</time></trkpt><trkpt lat="40.314493567797705" lon="17.574825551776044"><ele>14.0</ele><time>2026-04-03T13:36:03Z</time></trkpt><trkpt lat="40.31456986839818" lon="17.574841994062602"><ele>14.0</ele><time>2026-04-03T13:36:07Z</time></trkpt><trkpt lat="40.31450181598135" lon="17.574923554239348"><ele>14.000000000000002</ele><time>2026-04-03T13:36:11Z</time></trkpt><trkpt lat="40.31443072053866" lon="17.575001811740975"><ele>14.0</ele><time>2026-04-03T13:36:14Z</time></trkpt><trkpt lat="40.31439884814736" lon="17.575081837355356"><ele>14.000000000000002</ele><time>2026-04-03T13:36:16Z</time></trkpt><trkpt lat="40.31436011902865" lon="17.575165662533063"><ele>14.0</ele><time>2026-04-03T13:36:18Z</time></trkpt><trkpt lat="40.314313839271406" lon="17.57524038697167"><ele>14.0</ele><time>2026-04-03T13:36:20Z</time></trkpt><trkpt lat="40.314266750048795" lon="17.575321263020747"><ele>14.0</ele><time>2026-04-03T13:36:22Z</time></trkpt><trkpt lat="40.314218928561786" lon="17.57539973118862"><ele>14.000000000000002</ele><time>2026-04-03T13:36:24Z</time></trkpt><trkpt lat="40.3141740141358" lon="17.57548413906376"><ele>14.0</ele><time>2026-04-03T13:36:26Z</time></trkpt><trkpt lat="40.314114033312705" lon="17.575567543249317"><ele>13.799999999999999</ele><time>2026-04-03T13:36:28Z</time></trkpt><trkpt lat="40.31406524230319" lon="17.57566849555306"><ele>13.599999999999998</ele><time>2026-04-03T13:36:30Z</time></trkpt><trkpt lat="40.314002742952454" lon="17.57576773328062"><ele>13.4</ele><time>2026-04-03T13:36:32Z</time></trkpt><trkpt lat="40.31393549445452" lon="17.57587240245786"><ele>13.2</ele><time>2026-04-03T13:36:34Z</time></trkpt><trkpt lat="40.31384762888601" lon="17.575962055042897"><ele>13.0</ele><time>2026-04-03T13:36:36Z</time></trkpt><trkpt lat="40.31378120891536" lon="17.5760746116361"><ele>13.0</ele><time>2026-04-03T13:36:38Z</time></trkpt><trkpt lat="40.31371288508379" lon="17.576190394539726"><ele>13.0</ele><time>2026-04-03T13:36:40Z</time></trkpt><trkpt lat="40.31364675836274" lon="17.57630245417948"><ele>13.0</ele><time>2026-04-03T13:36:42Z</time></trkpt><trkpt lat="40.31358192375816" lon="17.576412324170064"><ele>13.0</ele><time>2026-04-03T13:36:44Z</time></trkpt><trkpt lat="40.31351726821566" lon="17.57652189072775"><ele>13.0</ele><time>2026-04-03T13:36:46Z</time></trkpt><trkpt lat="40.31345661518889" lon="17.576614877327437"><ele>13.0</ele><time>2026-04-03T13:36:48Z</time></trkpt><trkpt lat="40.313381682495745" lon="17.576718029416888"><ele>13.0</ele><time>2026-04-03T13:36:50Z</time></trkpt><trkpt lat="40.31329851110259" lon="17.57678104154524"><ele>13.0</ele><time>2026-04-03T13:36:52Z</time></trkpt><trkpt lat="40.31320824119711" lon="17.576802822705275"><ele>13.0</ele><time>2026-04-03T13:36:54Z</time></trkpt><trkpt lat="40.313107078530685" lon="17.57681278989413"><ele>13.0</ele><time>2026-04-03T13:36:56Z</time></trkpt><trkpt lat="40.31300591668583" lon="17.576816085787854"><ele>12.8</ele><time>2026-04-03T13:36:58Z</time></trkpt><trkpt lat="40.312902010079654" lon="17.576817411001805"><ele>12.600000000000001</ele><time>2026-04-03T13:37:00Z</time></trkpt><trkpt lat="40.31279831181145" lon="17.576818132284682"><ele>12.399999999999999</ele><time>2026-04-03T13:37:02Z</time></trkpt><trkpt lat="40.31269313023508" lon="17.576817443393246"><ele>12.2</ele><time>2026-04-03T13:37:04Z</time></trkpt><trkpt lat="40.312585630366826" lon="17.576816739321533"><ele>12.0</ele><time>2026-04-03T13:37:06Z</time></trkpt><trkpt lat="40.312476956080204" lon="17.57681602755798"><ele>12.0</ele><time>2026-04-03T13:37:08Z</time></trkpt><trkpt lat="40.31237255140263" lon="17.576815343755438"><ele>12.0</ele><time>2026-04-03T13:37:10Z</time></trkpt><trkpt lat="40.312266570877426" lon="17.57681464963469"><ele>12.0</ele><time>2026-04-03T13:37:12Z</time></trkpt><trkpt lat="40.312162134536386" lon="17.57681454418442"><ele>12.0</ele><time>2026-04-03T13:37:14Z</time></trkpt><trkpt lat="40.31205448596263" lon="17.576815344969887"><ele>12.0</ele><time>2026-04-03T13:37:16Z</time></trkpt><trkpt lat="40.31194626471278" lon="17.57681653874407"><ele>11.8</ele><time>2026-04-03T13:37:18Z</time></trkpt><trkpt lat="40.31186800915618" lon="17.576817562357466"><ele>11.6</ele><time>2026-04-03T13:37:20Z</time></trkpt><trkpt lat="40.311759416241" lon="17.57681898280073"><ele>11.4</ele><time>2026-04-03T13:37:22Z</time></trkpt><trkpt lat="40.31164531852907" lon="17.57682047524989"><ele>11.200000000000001</ele><time>2026-04-03T13:37:24Z</time></trkpt><trkpt lat="40.311534094685356" lon="17.576821930107435"><ele>11.0</ele><time>2026-04-03T13:37:26Z</time></trkpt><trkpt lat="40.311424684847275" lon="17.57682336123609"><ele>11.0</ele><time>2026-04-03T13:37:28Z</time></trkpt><trkpt lat="40.31131642182892" lon="17.57682570465364"><ele>11.0</ele><time>2026-04-03T13:37:30Z</time></trkpt><trkpt lat="40.311205653993426" lon="17.576828333575612"><ele>11.0</ele><time>2026-04-03T13:37:32Z</time></trkpt><trkpt lat="40.311100299881765" lon="17.576830084270394"><ele>11.0</ele><time>2026-04-03T13:37:34Z</time></trkpt><trkpt lat="40.31098343000009" lon="17.576828690472183"><ele>11.0</ele><time>2026-04-03T13:37:36Z</time></trkpt><trkpt lat="40.31088020111542" lon="17.576827459357965"><ele>11.0</ele><time>2026-04-03T13:37:38Z</time></trkpt><trkpt lat="40.31079310209151" lon="17.57682642061279"><ele>11.0</ele><time>2026-04-03T13:37:39Z</time></trkpt><trkpt lat="40.310691264557526" lon="17.576826336821245"><ele>11.0</ele><time>2026-04-03T13:37:41Z</time></trkpt><trkpt lat="40.310580888889" lon="17.576828508586075"><ele>11.0</ele><time>2026-04-03T13:37:43Z</time></trkpt><trkpt lat="40.31047458851573" lon="17.57683848003385"><ele>11.0</ele><time>2026-04-03T13:37:45Z</time></trkpt><trkpt lat="40.310390782958" lon="17.57687341920794"><ele>11.333333333333332</ele><time>2026-04-03T13:37:47Z</time></trkpt><trkpt lat="40.31031768379345" lon="17.57687416067299"><ele>11.666666666666666</ele><time>2026-04-03T13:37:49Z</time></trkpt><trkpt lat="40.31026458183047" lon="17.57694958502161"><ele>12.0</ele><time>2026-04-03T13:37:52Z</time></trkpt><trkpt lat="40.31020394445933" lon="17.57700595532746"><ele>12.333333333333332</ele><time>2026-04-03T13:37:55Z</time></trkpt><trkpt lat="40.31014275767537" lon="17.577076401885723"><ele>12.666666666666666</ele><time>2026-04-03T13:37:59Z</time></trkpt><trkpt lat="40.31008066890586" lon="17.577144109283488"><ele>13.0</ele><time>2026-04-03T13:38:02Z</time></trkpt><trkpt lat="40.31001572182467" lon="17.577235971963926"><ele>13.0</ele><time>2026-04-03T13:38:05Z</time></trkpt><trkpt lat="40.30995847456084" lon="17.577287144398717"><ele>13.0</ele><time>2026-04-03T13:38:07Z</time></trkpt><trkpt lat="40.30990044810008" lon="17.57734028888543"><ele>13.0</ele><time>2026-04-03T13:38:09Z</time></trkpt><trkpt lat="40.30984920830742" lon="17.577411075004594"><ele>13.0</ele><time>2026-04-03T13:38:11Z</time></trkpt><trkpt lat="40.3097927464963" lon="17.577471634830932"><ele>13.0</ele><time>2026-04-03T13:38:13Z</time></trkpt><trkpt lat="40.30973892150881" lon="17.57753137118251"><ele>13.0</ele><time>2026-04-03T13:38:15Z</time></trkpt><trkpt lat="40.309686010235176" lon="17.577578541727384"><ele>13.0</ele><time>2026-04-03T13:38:17Z</time></trkpt><trkpt lat="40.309640666516295" lon="17.577641875791524"><ele>12.999999999999998</ele><time>2026-04-03T13:38:19Z</time></trkpt><trkpt lat="40.309584641552895" lon="17.577694160908813"><ele>13.0</ele><time>2026-04-03T13:38:21Z</time></trkpt><trkpt lat="40.30953854015904" lon="17.57775652896156"><ele>13.0</ele><time>2026-04-03T13:38:23Z</time></trkpt><trkpt lat="40.30949208604936" lon="17.5778326764134"><ele>13.0</ele><time>2026-04-03T13:38:25Z</time></trkpt><trkpt lat="40.30944523172757" lon="17.57791638077394"><ele>12.999999999999998</ele><time>2026-04-03T13:38:27Z</time></trkpt><trkpt lat="40.30937897300637" lon="17.577985354935624"><ele>13.0</ele><time>2026-04-03T13:38:29Z</time></trkpt><trkpt lat="40.3093237591523" lon="17.578066940776512"><ele>12.999999999999998</ele><time>2026-04-03T13:38:31Z</time></trkpt><trkpt lat="40.30924008570226" lon="17.578116134014632"><ele>13.0</ele><time>2026-04-03T13:38:33Z</time></trkpt><trkpt lat="40.30915829762147" lon="17.578153335700044"><ele>13.0</ele><time>2026-04-03T13:38:35Z</time></trkpt><trkpt lat="40.30908706384444" lon="17.578182340925608"><ele>13.0</ele><time>2026-04-03T13:38:37Z</time></trkpt><trkpt lat="40.30899868143292" lon="17.578224654269125"><ele>12.999999999999998</ele><time>2026-04-03T13:38:39Z</time></trkpt><trkpt lat="40.308918447453635" lon="17.578270696496162"><ele>13.0</ele><time>2026-04-03T13:38:41Z</time></trkpt><trkpt lat="40.3088528621952" lon="17.57833537900132"><ele>12.8</ele><time>2026-04-03T13:38:43Z</time></trkpt><trkpt lat="40.308802293639296" lon="17.578449112558342"><ele>12.600000000000001</ele><time>2026-04-03T13:38:45Z</time></trkpt><trkpt lat="40.30874064040323" lon="17.578532388905362"><ele>12.399999999999999</ele><time>2026-04-03T13:38:47Z</time></trkpt><trkpt lat="40.308665932758174" lon="17.57861481030161"><ele>12.2</ele><time>2026-04-03T13:38:49Z</time></trkpt><trkpt lat="40.30858632233919" lon="17.57868133579996"><ele>12.0</ele><time>2026-04-03T13:38:51Z</time></trkpt><trkpt lat="40.308509243647315" lon="17.578741082471968"><ele>12.0</ele><time>2026-04-03T13:38:53Z</time></trkpt><trkpt lat="40.30843791598201" lon="17.578803908563344"><ele>12.0</ele><time>2026-04-03T13:38:55Z</time></trkpt><trkpt lat="40.30835928030169" lon="17.57886182857606"><ele>12.0</ele><time>2026-04-03T13:38:57Z</time></trkpt><trkpt lat="40.30829008448134" lon="17.578908459988266"><ele>12.0</ele><time>2026-04-03T13:38:59Z</time></trkpt><trkpt lat="40.308238423092234" lon="17.578976962428694"><ele>12.0</ele><time>2026-04-03T13:39:01Z</time></trkpt><trkpt lat="40.30820270607439" lon="17.57905734487553"><ele>12.0</ele><time>2026-04-03T13:39:03Z</time></trkpt><trkpt lat="40.3081633607058" lon="17.579157670005255"><ele>12.0</ele><time>2026-04-03T13:39:05Z</time></trkpt><trkpt lat="40.308126379262816" lon="17.5792652419991"><ele>12.0</ele><time>2026-04-03T13:39:07Z</time></trkpt><trkpt lat="40.30807635773128" lon="17.579342921643217"><ele>12.0</ele><time>2026-04-03T13:39:09Z</time></trkpt><trkpt lat="40.30806952390188" lon="17.579427192137207"><ele>12.0</ele><time>2026-04-03T13:39:12Z</time></trkpt><trkpt lat="40.30800054643252" lon="17.579503590257353"><ele>12.0</ele><time>2026-04-03T13:39:15Z</time></trkpt><trkpt lat="40.30794243376407" lon="17.579600208482876"><ele>12.0</ele><time>2026-04-03T13:39:18Z</time></trkpt><trkpt lat="40.30789705360555" lon="17.57965935630654"><ele>12.166666666666666</ele><time>2026-04-03T13:39:20Z</time></trkpt><trkpt lat="40.30783195492101" lon="17.579679801683337"><ele>12.333333333333332</ele><time>2026-04-03T13:39:22Z</time></trkpt><trkpt lat="40.30774913408587" lon="17.579707032698824"><ele>12.5</ele><time>2026-04-03T13:39:25Z</time></trkpt><trkpt lat="40.30767592276519" lon="17.57974068455404"><ele>12.666666666666666</ele><time>2026-04-03T13:39:28Z</time></trkpt><trkpt lat="40.30760954075703" lon="17.5797844667846"><ele>12.833333333333332</ele><time>2026-04-03T13:39:32Z</time></trkpt><trkpt lat="40.307551778517876" lon="17.57983616194252"><ele>13.0</ele><time>2026-04-03T13:39:35Z</time></trkpt><trkpt lat="40.30748254308357" lon="17.579891072714044"><ele>12.999999999999998</ele><time>2026-04-03T13:39:38Z</time></trkpt><trkpt lat="40.30740372308616" lon="17.579965682675343"><ele>13.0</ele><time>2026-04-03T13:39:41Z</time></trkpt><trkpt lat="40.30734693958257" lon="17.580013105085154"><ele>13.0</ele><time>2026-04-03T13:39:43Z</time></trkpt><trkpt lat="40.307289406772846" lon="17.58007039232661"><ele>13.0</ele><time>2026-04-03T13:39:45Z</time></trkpt><trkpt lat="40.30722685061847" lon="17.580142205067464"><ele>12.999999999999998</ele><time>2026-04-03T13:39:47Z</time></trkpt><trkpt lat="40.3071728486376" lon="17.580217624286053"><ele>13.0</ele><time>2026-04-03T13:39:49Z</time></trkpt><trkpt lat="40.30711856226995" lon="17.58030066350355"><ele>13.166666666666666</ele><time>2026-04-03T13:39:51Z</time></trkpt><trkpt lat="40.30706732662467" lon="17.58038200875416"><ele>13.333333333333332</ele><time>2026-04-03T13:39:53Z</time></trkpt><trkpt lat="40.30701070062244" lon="17.58045804349932"><ele>13.5</ele><time>2026-04-03T13:39:55Z</time></trkpt><trkpt lat="40.30696073298151" lon="17.580534820786625"><ele>13.666666666666668</ele><time>2026-04-03T13:39:57Z</time></trkpt><trkpt lat="40.30692519870142" lon="17.58062386973528"><ele>13.833333333333334</ele><time>2026-04-03T13:39:59Z</time></trkpt><trkpt lat="40.30691675029606" lon="17.580723824030017"><ele>14.0</ele><time>2026-04-03T13:40:01Z</time></trkpt><trkpt lat="40.30689156460992" lon="17.580846799931045"><ele>14.0</ele><time>2026-04-03T13:40:03Z</time></trkpt><trkpt lat="40.30682658546425" lon="17.58094805276712"><ele>13.999999999999998</ele><time>2026-04-03T13:40:05Z</time></trkpt><trkpt lat="40.30678407334743" lon="17.58105051218485"><ele>13.999999999999998</ele><time>2026-04-03T13:40:07Z</time></trkpt><trkpt lat="40.3067391443279" lon="17.581158761812414"><ele>14.0</ele><time>2026-04-03T13:40:09Z</time></trkpt><trkpt lat="40.30668423587734" lon="17.581249622337072"><ele>14.0</ele><time>2026-04-03T13:40:11Z</time></trkpt><trkpt lat="40.306638221117005" lon="17.58134275869195"><ele>13.666666666666668</ele><time>2026-04-03T13:40:13Z</time></trkpt><trkpt lat="40.30659866097388" lon="17.581431394351004"><ele>13.333333333333334</ele><time>2026-04-03T13:40:15Z</time></trkpt><trkpt lat="40.30657121691074" lon="17.58151644122315"><ele>13.0</ele><time>2026-04-03T13:40:17Z</time></trkpt><trkpt lat="40.30650917975228" lon="17.581604485024926"><ele>12.666666666666668</ele><time>2026-04-03T13:40:20Z</time></trkpt><trkpt lat="40.30647564845854" lon="17.581674687254015"><ele>12.333333333333334</ele><time>2026-04-03T13:40:22Z</time></trkpt><trkpt lat="40.30643567837852" lon="17.581753678834954"><ele>12.0</ele><time>2026-04-03T13:40:24Z</time></trkpt><trkpt lat="40.30638890533617" lon="17.5818319773048"><ele>12.0</ele><time>2026-04-03T13:40:26Z</time></trkpt><trkpt lat="40.30633993870023" lon="17.581920690224752"><ele>12.0</ele><time>2026-04-03T13:40:28Z</time></trkpt><trkpt lat="40.306293402744565" lon="17.582005593925047"><ele>12.0</ele><time>2026-04-03T13:40:30Z</time></trkpt><trkpt lat="40.30624205999616" lon="17.582076467325553"><ele>12.0</ele><time>2026-04-03T13:40:32Z</time></trkpt><trkpt lat="40.30620637475631" lon="17.58214921590719"><ele>12.0</ele><time>2026-04-03T13:40:34Z</time></trkpt><trkpt lat="40.306149936624735" lon="17.58222832934742"><ele>12.0</ele><time>2026-04-03T13:40:37Z</time></trkpt><trkpt lat="40.30611683666779" lon="17.58230036124897"><ele>12.0</ele><time>2026-04-03T13:40:40Z</time></trkpt><trkpt lat="40.3061346708904" lon="17.582209448723066"><ele>12.0</ele><time>2026-04-03T13:41:02Z</time></trkpt><trkpt lat="40.306114021267966" lon="17.58212390860419"><ele>12.0</ele><time>2026-04-03T13:41:05Z</time></trkpt><trkpt lat="40.30609347534989" lon="17.582036508202126"><ele>12.0</ele><time>2026-04-03T13:41:08Z</time></trkpt><trkpt lat="40.306085278129224" lon="17.581934974119367"><ele>12.0</ele><time>2026-04-03T13:41:13Z</time></trkpt><trkpt lat="40.30606553125102" lon="17.581809637512936"><ele>12.0</ele><time>2026-04-03T13:41:17Z</time></trkpt><trkpt lat="40.30605683707805" lon="17.581724827627998"><ele>12.0</ele><time>2026-04-03T13:41:19Z</time></trkpt><trkpt lat="40.30602799650428" lon="17.581618226021206"><ele>12.0</ele><time>2026-04-03T13:41:22Z</time></trkpt><trkpt lat="40.30601267006819" lon="17.58151396766485"><ele>12.0</ele><time>2026-04-03T13:41:25Z</time></trkpt><trkpt lat="40.30599217845137" lon="17.581404343748012"><ele>12.0</ele><time>2026-04-03T13:41:28Z</time></trkpt><trkpt lat="40.30596809180084" lon="17.58127038974922"><ele>12.0</ele><time>2026-04-03T13:41:32Z</time></trkpt><trkpt lat="40.305941567826636" lon="17.581168394202425"><ele>12.0</ele><time>2026-04-03T13:41:35Z</time></trkpt><trkpt lat="40.30592812172735" lon="17.581067702332373"><ele>12.142857142857142</ele><time>2026-04-03T13:41:38Z</time></trkpt><trkpt lat="40.30590520729764" lon="17.58098355880835"><ele>12.285714285714285</ele><time>2026-04-03T13:41:41Z</time></trkpt><trkpt lat="40.30588664598444" lon="17.580884640413746"><ele>12.428571428571427</ele><time>2026-04-03T13:41:45Z</time></trkpt><trkpt lat="40.305867513616484" lon="17.580778629762282"><ele>12.571428571428571</ele><time>2026-04-03T13:41:49Z</time></trkpt><trkpt lat="40.305844818814705" lon="17.58069847099777"><ele>12.714285714285715</ele><time>2026-04-03T13:41:52Z</time></trkpt><trkpt lat="40.305827727740656" lon="17.580602605512315"><ele>12.857142857142856</ele><time>2026-04-03T13:41:56Z</time></trkpt><trkpt lat="40.30580871064823" lon="17.580521930587015"><ele>13.0</ele><time>2026-04-03T13:42:00Z</time></trkpt><trkpt lat="40.305791667206776" lon="17.580431179509503"><ele>13.333333333333332</ele><time>2026-04-03T13:42:15Z</time></trkpt><trkpt lat="40.3057845578013" lon="17.580345989885462"><ele>13.666666666666666</ele><time>2026-04-03T13:42:30Z</time></trkpt><trkpt lat="40.305803712792574" lon="17.580239179017497"><ele>14.0</ele><time>2026-04-03T13:42:35Z</time></trkpt><trkpt lat="40.30578930854703" lon="17.580140626876574"><ele>14.333333333333332</ele><time>2026-04-03T13:42:39Z</time></trkpt><trkpt lat="40.305774422525964" lon="17.580032160522205"><ele>14.666666666666666</ele><time>2026-04-03T13:42:43Z</time></trkpt><trkpt lat="40.30582570168334" lon="17.57992526533045"><ele>15.0</ele><time>2026-04-03T13:42:46Z</time></trkpt><trkpt lat="40.30586225446437" lon="17.579824491748113"><ele>15.0</ele><time>2026-04-03T13:42:49Z</time></trkpt><trkpt lat="40.30590038019459" lon="17.579754854865357"><ele>15.0</ele><time>2026-04-03T13:42:52Z</time></trkpt><trkpt lat="40.30588871395436" lon="17.57966784884204"><ele>15.0</ele><time>2026-04-03T13:42:55Z</time></trkpt><trkpt lat="40.305924135493406" lon="17.579595262577595"><ele>15.0</ele><time>2026-04-03T13:42:58Z</time></trkpt><trkpt lat="40.30598724618828" lon="17.579552833740383"><ele>15.0</ele><time>2026-04-03T13:43:01Z</time></trkpt><trkpt lat="40.30605408942776" lon="17.5795089956085"><ele>15.0</ele><time>2026-04-03T13:43:04Z</time></trkpt><trkpt lat="40.3061272164291" lon="17.579479802388523"><ele>15.0</ele><time>2026-04-03T13:43:07Z</time></trkpt><trkpt lat="40.30619848093158" lon="17.579422839320497"><ele>14.857142857142858</ele><time>2026-04-03T13:43:10Z</time></trkpt><trkpt lat="40.306265588940605" lon="17.579387798389856"><ele>14.714285714285714</ele><time>2026-04-03T13:43:13Z</time></trkpt><trkpt lat="40.3063316000162" lon="17.579350559160453"><ele>14.571428571428571</ele><time>2026-04-03T13:43:16Z</time></trkpt><trkpt lat="40.30639420744491" lon="17.57930003622368"><ele>14.428571428571429</ele><time>2026-04-03T13:43:19Z</time></trkpt><trkpt lat="40.30646641211215" lon="17.579277921355473"><ele>14.285714285714285</ele><time>2026-04-03T13:43:22Z</time></trkpt><trkpt lat="40.30654025227767" lon="17.5792292419748"><ele>14.142857142857142</ele><time>2026-04-03T13:43:25Z</time></trkpt><trkpt lat="40.30660521965107" lon="17.57921430057064"><ele>14.0</ele><time>2026-04-03T13:43:28Z</time></trkpt><trkpt lat="40.30668290090606" lon="17.57915513714014"><ele>14.000000000000002</ele><time>2026-04-03T13:43:31Z</time></trkpt><trkpt lat="40.3067822643018" lon="17.579100508608406"><ele>14.0</ele><time>2026-04-03T13:43:33Z</time></trkpt><trkpt lat="40.30687321815979" lon="17.57906753703588"><ele>14.0</ele><time>2026-04-03T13:43:35Z</time></trkpt><trkpt lat="40.306950621822175" lon="17.57903782401495"><ele>14.0</ele><time>2026-04-03T13:43:37Z</time></trkpt><trkpt lat="40.30701189176457" lon="17.57901588283958"><ele>14.000000000000002</ele><time>2026-04-03T13:43:39Z</time></trkpt><trkpt lat="40.30707963184472" lon="17.57899457661006"><ele>14.0</ele><time>2026-04-03T13:43:41Z</time></trkpt><trkpt lat="40.30716270129807" lon="17.57894109736919"><ele>14.000000000000002</ele><time>2026-04-03T13:43:43Z</time></trkpt><trkpt lat="40.3072436557644" lon="17.578919949326785"><ele>14.0</ele><time>2026-04-03T13:43:45Z</time></trkpt><trkpt lat="40.30732945899578" lon="17.57887968610225"><ele>14.0</ele><time>2026-04-03T13:43:48Z</time></trkpt><trkpt lat="40.30739153204145" lon="17.578844879126066"><ele>14.0</ele><time>2026-04-03T13:43:50Z</time></trkpt><trkpt lat="40.307472598025335" lon="17.57881248426771"><ele>14.000000000000002</ele><time>2026-04-03T13:43:52Z</time></trkpt><trkpt lat="40.307549140961655" lon="17.578794436813478"><ele>14.0</ele><time>2026-04-03T13:43:54Z</time></trkpt><trkpt lat="40.30761079024493" lon="17.578771062568215"><ele>14.166666666666668</ele><time>2026-04-03T13:43:56Z</time></trkpt><trkpt lat="40.30768241941828" lon="17.578753354933788"><ele>14.333333333333334</ele><time>2026-04-03T13:43:58Z</time></trkpt><trkpt lat="40.30774680972731" lon="17.578725369351538"><ele>14.5</ele><time>2026-04-03T13:44:00Z</time></trkpt><trkpt lat="40.307823299076716" lon="17.578682398762094"><ele>14.666666666666668</ele><time>2026-04-03T13:44:03Z</time></trkpt><trkpt lat="40.30789644936846" lon="17.57865876704557"><ele>14.833333333333334</ele><time>2026-04-03T13:44:06Z</time></trkpt><trkpt lat="40.30796146993582" lon="17.578622266195705"><ele>15.0</ele><time>2026-04-03T13:44:09Z</time></trkpt><trkpt lat="40.308037806678165" lon="17.57859251038907"><ele>15.0</ele><time>2026-04-03T13:44:12Z</time></trkpt><trkpt lat="40.308117633780775" lon="17.57860310922445"><ele>15.0</ele><time>2026-04-03T13:44:15Z</time></trkpt><trkpt lat="40.30817918054961" lon="17.578675751611804"><ele>15.0</ele><time>2026-04-03T13:44:18Z</time></trkpt><trkpt lat="40.30822331926556" lon="17.578734889955054"><ele>15.0</ele><time>2026-04-03T13:44:20Z</time></trkpt><trkpt lat="40.308285232546595" lon="17.57877785804076"><ele>15.0</ele><time>2026-04-03T13:44:22Z</time></trkpt><trkpt lat="40.30835948006341" lon="17.57881105910386"><ele>15.0</ele><time>2026-04-03T13:44:24Z</time></trkpt><trkpt lat="40.30844119681179" lon="17.578780291448602"><ele>15.0</ele><time>2026-04-03T13:44:26Z</time></trkpt><trkpt lat="40.308503146860524" lon="17.578720406302995"><ele>15.0</ele><time>2026-04-03T13:44:28Z</time></trkpt><trkpt lat="40.3085634529459" lon="17.578668836256906"><ele>15.0</ele><time>2026-04-03T13:44:30Z</time></trkpt><trkpt lat="40.308638572484064" lon="17.57860689249501"><ele>15.0</ele><time>2026-04-03T13:44:33Z</time></trkpt><trkpt lat="40.30869608862693" lon="17.578532212632407"><ele>15.0</ele><time>2026-04-03T13:44:36Z</time></trkpt><trkpt lat="40.308758244161346" lon="17.57848090730107"><ele>15.0</ele><time>2026-04-03T13:44:39Z</time></trkpt><trkpt lat="40.30880431547583" lon="17.578393029296983"><ele>15.0</ele><time>2026-04-03T13:44:42Z</time></trkpt><trkpt lat="40.30885522381805" lon="17.57831587301163"><ele>15.0</ele><time>2026-04-03T13:44:45Z</time></trkpt><trkpt lat="40.30891131379467" lon="17.578264774255665"><ele>15.0</ele><time>2026-04-03T13:44:48Z</time></trkpt><trkpt lat="40.3089677705464" lon="17.578209817986664"><ele>15.0</ele><time>2026-04-03T13:44:52Z</time></trkpt><trkpt lat="40.309037814513395" lon="17.578170438014823"><ele>15.0</ele><time>2026-04-03T13:44:56Z</time></trkpt><trkpt lat="40.308991434842326" lon="17.57824443747927"><ele>15.0</ele><time>2026-04-03T13:45:27Z</time></trkpt><trkpt lat="40.3089039424491" lon="17.578284731306656"><ele>15.0</ele><time>2026-04-03T13:45:30Z</time></trkpt><trkpt lat="40.30885231613215" lon="17.5783474246354"><ele>15.0</ele><time>2026-04-03T13:45:32Z</time></trkpt><trkpt lat="40.308806669361026" lon="17.578428087342225"><ele>15.0</ele><time>2026-04-03T13:45:34Z</time></trkpt><trkpt lat="40.30875764418" lon="17.578509788140117"><ele>15.0</ele><time>2026-04-03T13:45:36Z</time></trkpt><trkpt lat="40.30869443397105" lon="17.578580797308014"><ele>15.0</ele><time>2026-04-03T13:45:38Z</time></trkpt><trkpt lat="40.3086255961943" lon="17.578647594415543"><ele>15.0</ele><time>2026-04-03T13:45:40Z</time></trkpt><trkpt lat="40.308551341589805" lon="17.578703942344983"><ele>14.571428571428571</ele><time>2026-04-03T13:45:42Z</time></trkpt><trkpt lat="40.308481343070085" lon="17.578755231567975"><ele>14.142857142857142</ele><time>2026-04-03T13:45:44Z</time></trkpt><trkpt lat="40.308420852195496" lon="17.578801682254422"><ele>13.714285714285714</ele><time>2026-04-03T13:45:46Z</time></trkpt><trkpt lat="40.30836019442698" lon="17.57882717033207"><ele>13.285714285714285</ele><time>2026-04-03T13:45:48Z</time></trkpt><trkpt lat="40.308295230601104" lon="17.578763742440305"><ele>12.857142857142858</ele><time>2026-04-03T13:45:51Z</time></trkpt><trkpt lat="40.308333702450746" lon="17.578849805433762"><ele>12.428571428571427</ele><time>2026-04-03T13:46:01Z</time></trkpt><trkpt lat="40.308302059807055" lon="17.578922025796125"><ele>12.0</ele><time>2026-04-03T13:46:03Z</time></trkpt><trkpt lat="40.30824668598337" lon="17.57899005936979"><ele>12.0</ele><time>2026-04-03T13:46:06Z</time></trkpt><trkpt lat="40.30820873372231" lon="17.579060059008828"><ele>12.0</ele><time>2026-04-03T13:46:09Z</time></trkpt><trkpt lat="40.308166543762574" lon="17.579174698345852"><ele>12.0</ele><time>2026-04-03T13:46:12Z</time></trkpt><trkpt lat="40.308133337007455" lon="17.579266966034098"><ele>12.0</ele><time>2026-04-03T13:46:14Z</time></trkpt><trkpt lat="40.308102063375685" lon="17.57936769916011"><ele>12.0</ele><time>2026-04-03T13:46:16Z</time></trkpt><trkpt lat="40.308036197174424" lon="17.579463894288374"><ele>12.0</ele><time>2026-04-03T13:46:18Z</time></trkpt><trkpt lat="40.30796148124512" lon="17.579590137112344"><ele>12.2</ele><time>2026-04-03T13:46:20Z</time></trkpt><trkpt lat="40.30786456369663" lon="17.579685184207666"><ele>12.399999999999999</ele><time>2026-04-03T13:46:22Z</time></trkpt><trkpt lat="40.307765905393424" lon="17.579713338173534"><ele>12.600000000000001</ele><time>2026-04-03T13:46:24Z</time></trkpt><trkpt lat="40.30766703493961" lon="17.57974683465782"><ele>12.8</ele><time>2026-04-03T13:46:26Z</time></trkpt><trkpt lat="40.307575513333056" lon="17.579811933026587"><ele>13.0</ele><time>2026-04-03T13:46:28Z</time></trkpt><trkpt lat="40.30749346149046" lon="17.579888346359475"><ele>13.0</ele><time>2026-04-03T13:46:30Z</time></trkpt><trkpt lat="40.307416157115526" lon="17.579964678753967"><ele>13.0</ele><time>2026-04-03T13:46:32Z</time></trkpt><trkpt lat="40.30732751285985" lon="17.580046532280726"><ele>13.0</ele><time>2026-04-03T13:46:34Z</time></trkpt><trkpt lat="40.30723433292266" lon="17.5801449335157"><ele>13.0</ele><time>2026-04-03T13:46:36Z</time></trkpt><trkpt lat="40.30715019008698" lon="17.58026540709964"><ele>13.0</ele><time>2026-04-03T13:46:38Z</time></trkpt><trkpt lat="40.307111680834055" lon="17.580330854208754"><ele>13.2</ele><time>2026-04-03T13:46:39Z</time></trkpt><trkpt lat="40.307034538125" lon="17.580446607220924"><ele>13.4</ele><time>2026-04-03T13:46:41Z</time></trkpt><trkpt lat="40.30696662563283" lon="17.58053320237607"><ele>13.599999999999998</ele><time>2026-04-03T13:46:43Z</time></trkpt><trkpt lat="40.30693495021876" lon="17.58063382091135"><ele>13.799999999999999</ele><time>2026-04-03T13:46:45Z</time></trkpt><trkpt lat="40.30692370337723" lon="17.580753276052448"><ele>14.0</ele><time>2026-04-03T13:46:47Z</time></trkpt><trkpt lat="40.30688665760385" lon="17.58086758314292"><ele>14.0</ele><time>2026-04-03T13:46:49Z</time></trkpt><trkpt lat="40.30683959655558" lon="17.58096772317523"><ele>13.999999999999998</ele><time>2026-04-03T13:46:51Z</time></trkpt><trkpt lat="40.30679617147854" lon="17.58106123475432"><ele>13.999999999999998</ele><time>2026-04-03T13:46:53Z</time></trkpt><trkpt lat="40.30674479829434" lon="17.581196866503127"><ele>14.0</ele><time>2026-04-03T13:46:55Z</time></trkpt><trkpt lat="40.30671180927807" lon="17.581267950599013"><ele>14.0</ele><time>2026-04-03T13:46:56Z</time></trkpt><trkpt lat="40.30663838994838" lon="17.58140223221174"><ele>13.6</ele><time>2026-04-03T13:46:58Z</time></trkpt><trkpt lat="40.30656853385797" lon="17.581539588451843"><ele>13.2</ele><time>2026-04-03T13:47:00Z</time></trkpt><trkpt lat="40.30653234482467" lon="17.581609908921795"><ele>12.799999999999999</ele><time>2026-04-03T13:47:01Z</time></trkpt><trkpt lat="40.30647631853711" lon="17.58171826506106"><ele>12.399999999999999</ele><time>2026-04-03T13:47:03Z</time></trkpt><trkpt lat="40.30641993398002" lon="17.581819464867586"><ele>12.0</ele><time>2026-04-03T13:47:05Z</time></trkpt><trkpt lat="40.30636133048896" lon="17.581905295073824"><ele>11.999999999999998</ele><time>2026-04-03T13:47:07Z</time></trkpt><trkpt lat="40.30631730774616" lon="17.581973091588235"><ele>12.0</ele><time>2026-04-03T13:47:09Z</time></trkpt><trkpt lat="40.30627098321285" lon="17.582045723233204"><ele>12.0</ele><time>2026-04-03T13:47:12Z</time></trkpt><trkpt lat="40.30623913741534" lon="17.582120950278576"><ele>12.0</ele><time>2026-04-03T13:47:16Z</time></trkpt><trkpt lat="40.30618534674804" lon="17.582187182336423"><ele>12.0</ele><time>2026-04-03T13:47:20Z</time></trkpt><trkpt lat="40.306121904590256" lon="17.582156912524617"><ele>11.999999999999998</ele><time>2026-04-03T13:47:23Z</time></trkpt><trkpt lat="40.306107646809245" lon="17.5820619996923"><ele>12.0</ele><time>2026-04-03T13:47:26Z</time></trkpt><trkpt lat="40.30608660815417" lon="17.581974904879"><ele>12.0</ele><time>2026-04-03T13:47:29Z</time></trkpt><trkpt lat="40.30607753391468" lon="17.581868242803907"><ele>12.0</ele><time>2026-04-03T13:47:33Z</time></trkpt><trkpt lat="40.306065911789794" lon="17.581764604744688"><ele>12.0</ele><time>2026-04-03T13:47:37Z</time></trkpt><trkpt lat="40.30604357304291" lon="17.581675679702588"><ele>12.0</ele><time>2026-04-03T13:47:41Z</time></trkpt><trkpt lat="40.30603107659956" lon="17.581579688777758"><ele>12.0</ele><time>2026-04-03T13:47:45Z</time></trkpt><trkpt lat="40.30600865668711" lon="17.581482854151485"><ele>12.0</ele><time>2026-04-03T13:47:48Z</time></trkpt><trkpt lat="40.30599429782847" lon="17.581379629539384"><ele>12.0</ele><time>2026-04-03T13:47:51Z</time></trkpt><trkpt lat="40.30597639783857" lon="17.581271032828894"><ele>12.0</ele><time>2026-04-03T13:47:54Z</time></trkpt><trkpt lat="40.30595402772004" lon="17.581168457236583"><ele>12.0</ele><time>2026-04-03T13:47:57Z</time></trkpt><trkpt lat="40.305932186169485" lon="17.581076300909317"><ele>12.0</ele><time>2026-04-03T13:48:00Z</time></trkpt><trkpt lat="40.30590913645951" lon="17.580962542842723"><ele>12.0</ele><time>2026-04-03T13:48:03Z</time></trkpt><trkpt lat="40.30589266620719" lon="17.580873892603293"><ele>12.0</ele><time>2026-04-03T13:48:06Z</time></trkpt><trkpt lat="40.30586703059245" lon="17.580781535064318"><ele>12.142857142857142</ele><time>2026-04-03T13:48:09Z</time></trkpt><trkpt lat="40.30584532953284" lon="17.580693384557804"><ele>12.285714285714285</ele><time>2026-04-03T13:48:12Z</time></trkpt><trkpt lat="40.30581819574749" lon="17.580601864838602"><ele>12.428571428571427</ele><time>2026-04-03T13:48:17Z</time></trkpt><trkpt lat="40.305806127935085" lon="17.580512356293248"><ele>12.571428571428571</ele><time>2026-04-03T13:48:22Z</time></trkpt><trkpt lat="40.30578335844354" lon="17.580416612985633"><ele>12.714285714285715</ele><time>2026-04-03T13:48:27Z</time></trkpt><trkpt lat="40.305766561897784" lon="17.58033624506278"><ele>12.857142857142856</ele><time>2026-04-03T13:48:32Z</time></trkpt><trkpt lat="40.30571353610217" lon="17.58028781185578"><ele>13.0</ele><time>2026-04-03T13:48:36Z</time></trkpt><trkpt lat="40.30564764435076" lon="17.58031052636153"><ele>12.833333333333332</ele><time>2026-04-03T13:48:41Z</time></trkpt><trkpt lat="40.30557704298589" lon="17.580298790205756"><ele>12.666666666666666</ele><time>2026-04-03T13:48:45Z</time></trkpt><trkpt lat="40.305500885689995" lon="17.580298608452008"><ele>12.5</ele><time>2026-04-03T13:48:48Z</time></trkpt><trkpt lat="40.305408523324644" lon="17.580301508790146"><ele>12.333333333333332</ele><time>2026-04-03T13:48:51Z</time></trkpt><trkpt lat="40.305293334407025" lon="17.580290485214952"><ele>12.166666666666666</ele><time>2026-04-03T13:48:54Z</time></trkpt><trkpt lat="40.3052221966751" lon="17.58029047108038"><ele>12.0</ele><time>2026-04-03T13:48:55Z</time></trkpt><trkpt lat="40.305158404100915" lon="17.580308732850263"><ele>12.0</ele><time>2026-04-03T13:48:57Z</time></trkpt><trkpt lat="40.30508367308882" lon="17.580292381664815"><ele>12.0</ele><time>2026-04-03T13:48:59Z</time></trkpt><trkpt lat="40.305016242683365" lon="17.58029247996209"><ele>12.0</ele><time>2026-04-03T13:49:00Z</time></trkpt><trkpt lat="40.304934264356575" lon="17.580280862646536"><ele>12.0</ele><time>2026-04-03T13:49:02Z</time></trkpt><trkpt lat="40.30484648320718" lon="17.580282402502174"><ele>12.0</ele><time>2026-04-03T13:49:04Z</time></trkpt><trkpt lat="40.304762118399694" lon="17.580256979041287"><ele>12.0</ele><time>2026-04-03T13:49:06Z</time></trkpt><trkpt lat="40.30470748637443" lon="17.580159614553583"><ele>11.666666666666666</ele><time>2026-04-03T13:49:08Z</time></trkpt><trkpt lat="40.30462284164746" lon="17.580123318157963"><ele>11.333333333333334</ele><time>2026-04-03T13:49:10Z</time></trkpt><trkpt lat="40.304530970463006" lon="17.580130688507495"><ele>11.0</ele><time>2026-04-03T13:49:12Z</time></trkpt><trkpt lat="40.304460397883965" lon="17.580179287516184"><ele>10.666666666666668</ele><time>2026-04-03T13:49:14Z</time></trkpt><trkpt lat="40.304405057733646" lon="17.58010672721939"><ele>10.333333333333334</ele><time>2026-04-03T13:49:28Z</time></trkpt><trkpt lat="40.304374711405394" lon="17.579997271982972"><ele>10.0</ele><time>2026-04-03T13:49:31Z</time></trkpt><trkpt lat="40.30434316078934" lon="17.57989617533548"><ele>10.0</ele><time>2026-04-03T13:49:34Z</time></trkpt><trkpt lat="40.30431642059799" lon="17.579785165808982"><ele>10.0</ele><time>2026-04-03T13:49:37Z</time></trkpt><trkpt lat="40.304303838086085" lon="17.579669617470312"><ele>10.0</ele><time>2026-04-03T13:49:40Z</time></trkpt><trkpt lat="40.30429614144765" lon="17.57955719578956"><ele>10.0</ele><time>2026-04-03T13:49:43Z</time></trkpt><trkpt lat="40.30427696552462" lon="17.57944260973088"><ele>10.0</ele><time>2026-04-03T13:49:46Z</time></trkpt><trkpt lat="40.3042539191958" lon="17.579327890218853"><ele>10.0</ele><time>2026-04-03T13:49:49Z</time></trkpt><trkpt lat="40.30423192137995" lon="17.579211862434107"><ele>9.833333333333334</ele><time>2026-04-03T13:49:52Z</time></trkpt><trkpt lat="40.3042167124953" lon="17.57912660854012"><ele>9.666666666666668</ele><time>2026-04-03T13:49:54Z</time></trkpt><trkpt lat="40.304196493612906" lon="17.57903623393981"><ele>9.5</ele><time>2026-04-03T13:49:56Z</time></trkpt><trkpt lat="40.30418003045892" lon="17.578938114403996"><ele>9.333333333333334</ele><time>2026-04-03T13:49:58Z</time></trkpt><trkpt lat="40.30416207260195" lon="17.578835974259103"><ele>9.166666666666666</ele><time>2026-04-03T13:50:00Z</time></trkpt><trkpt lat="40.304135188108866" lon="17.578733974361718"><ele>9.0</ele><time>2026-04-03T13:50:02Z</time></trkpt><trkpt lat="40.30412109707606" lon="17.578634656840112"><ele>8.666666666666666</ele><time>2026-04-03T13:50:04Z</time></trkpt><trkpt lat="40.304107022306034" lon="17.578534317205122"><ele>8.333333333333334</ele><time>2026-04-03T13:50:06Z</time></trkpt><trkpt lat="40.30409139737144" lon="17.578435251659865"><ele>8.0</ele><time>2026-04-03T13:50:08Z</time></trkpt><trkpt lat="40.304073761266956" lon="17.578334586172584"><ele>7.666666666666667</ele><time>2026-04-03T13:50:10Z</time></trkpt><trkpt lat="40.30405243882202" lon="17.578235437514397"><ele>7.333333333333334</ele><time>2026-04-03T13:50:12Z</time></trkpt><trkpt lat="40.30403602320747" lon="17.57812520333667"><ele>7.0</ele><time>2026-04-03T13:50:14Z</time></trkpt><trkpt lat="40.30401624995303" lon="17.578009508676526"><ele>7.000000000000001</ele><time>2026-04-03T13:50:16Z</time></trkpt><trkpt lat="40.30399444106457" lon="17.577893144343562"><ele>7.0</ele><time>2026-04-03T13:50:18Z</time></trkpt><trkpt lat="40.30397409827602" lon="17.577776131403336"><ele>7.0</ele><time>2026-04-03T13:50:20Z</time></trkpt><trkpt lat="40.30395805503391" lon="17.577658474344823"><ele>7.0</ele><time>2026-04-03T13:50:22Z</time></trkpt><trkpt lat="40.3039646352111" lon="17.57754266053707"><ele>7.000000000000001</ele><time>2026-04-03T13:50:24Z</time></trkpt><trkpt lat="40.303972759619974" lon="17.57743304195937"><ele>7.0</ele><time>2026-04-03T13:50:26Z</time></trkpt><trkpt lat="40.303974418851304" lon="17.577323916962232"><ele>7.142857142857142</ele><time>2026-04-03T13:50:28Z</time></trkpt><trkpt lat="40.30397598139816" lon="17.577219066216376"><ele>7.285714285714286</ele><time>2026-04-03T13:50:30Z</time></trkpt><trkpt lat="40.30398025243058" lon="17.577126838025794"><ele>7.428571428571429</ele><time>2026-04-03T13:50:33Z</time></trkpt><trkpt lat="40.303977546496924" lon="17.577035993798276"><ele>7.571428571428571</ele><time>2026-04-03T13:50:34Z</time></trkpt><trkpt lat="40.3039743558399" lon="17.576944780478843"><ele>7.7142857142857135</ele><time>2026-04-03T13:50:37Z</time></trkpt><trkpt lat="40.303985215160836" lon="17.576853149458348"><ele>7.857142857142857</ele><time>2026-04-03T13:50:39Z</time></trkpt><trkpt lat="40.303993197307705" lon="17.57673886737368"><ele>8.0</ele><time>2026-04-03T13:50:42Z</time></trkpt><trkpt lat="40.30399333560022" lon="17.576628458698316"><ele>8.0</ele><time>2026-04-03T13:50:44Z</time></trkpt><trkpt lat="40.30399393838037" lon="17.576532650127348"><ele>7.999999999999999</ele><time>2026-04-03T13:50:46Z</time></trkpt><trkpt lat="40.303995058594424" lon="17.57644660651712"><ele>8.0</ele><time>2026-04-03T13:50:48Z</time></trkpt><trkpt lat="40.30400042771431" lon="17.576347084457726"><ele>8.0</ele><time>2026-04-03T13:50:51Z</time></trkpt><trkpt lat="40.30399806922501" lon="17.57624205206725"><ele>7.999999999999999</ele><time>2026-04-03T13:50:54Z</time></trkpt><trkpt lat="40.303995258338425" lon="17.576150412515865"><ele>8.0</ele><time>2026-04-03T13:50:56Z</time></trkpt><trkpt lat="40.30397566809546" lon="17.576046562065653"><ele>8.0</ele><time>2026-04-03T13:50:58Z</time></trkpt><trkpt lat="40.30394664218272" lon="17.575964414345165"><ele>7.833333333333333</ele><time>2026-04-03T13:51:00Z</time></trkpt><trkpt lat="40.30396375674092" lon="17.5758385649636"><ele>7.666666666666666</ele><time>2026-04-03T13:51:03Z</time></trkpt><trkpt lat="40.303952586860404" lon="17.57575333675399"><ele>7.5</ele><time>2026-04-03T13:51:05Z</time></trkpt><trkpt lat="40.303959143817885" lon="17.57564206966916"><ele>7.333333333333334</ele><time>2026-04-03T13:51:07Z</time></trkpt><trkpt lat="40.303973650252274" lon="17.575540266162868"><ele>7.166666666666667</ele><time>2026-04-03T13:51:09Z</time></trkpt><trkpt lat="40.30397467853212" lon="17.575449696826613"><ele>7.0</ele><time>2026-04-03T13:51:11Z</time></trkpt><trkpt lat="40.304017492055095" lon="17.575351657133666"><ele>7.0</ele><time>2026-04-03T13:51:14Z</time></trkpt><trkpt lat="40.304017805494134" lon="17.57525671031021"><ele>7.0</ele><time>2026-04-03T13:51:17Z</time></trkpt><trkpt lat="40.304014333407224" lon="17.575172317761456"><ele>7.0</ele><time>2026-04-03T13:51:20Z</time></trkpt><trkpt lat="40.303998476180574" lon="17.57508697476736"><ele>7.0</ele><time>2026-04-03T13:51:23Z</time></trkpt><trkpt lat="40.30399729670148" lon="17.574997324193365"><ele>7.0</ele><time>2026-04-03T13:51:25Z</time></trkpt><trkpt lat="40.30398122910514" lon="17.57491721947794"><ele>7.0</ele><time>2026-04-03T13:51:28Z</time></trkpt><trkpt lat="40.303887158330184" lon="17.574904439179317"><ele>7.0</ele><time>2026-04-03T13:51:31Z</time></trkpt><trkpt lat="40.303798881801335" lon="17.5749068405514"><ele>6.3999999999999995</ele><time>2026-04-03T13:51:33Z</time></trkpt><trkpt lat="40.30371863180181" lon="17.574907438099302"><ele>5.799999999999999</ele><time>2026-04-03T13:51:35Z</time></trkpt><trkpt lat="40.3036362691071" lon="17.57492127003593"><ele>5.2</ele><time>2026-04-03T13:51:37Z</time></trkpt><trkpt lat="40.3035354992701" lon="17.57493083995965"><ele>4.6</ele><time>2026-04-03T13:51:39Z</time></trkpt><trkpt lat="40.3034293122954" lon="17.574936763509776"><ele>4.0</ele><time>2026-04-03T13:51:41Z</time></trkpt><trkpt lat="40.303320880678775" lon="17.57494152805976"><ele>4.0</ele><time>2026-04-03T13:51:43Z</time></trkpt><trkpt lat="40.30321672670237" lon="17.574958073152214"><ele>4.0</ele><time>2026-04-03T13:51:45Z</time></trkpt><trkpt lat="40.3031103676486" lon="17.574957566924926"><ele>4.0</ele><time>2026-04-03T13:51:47Z</time></trkpt><trkpt lat="40.30300835068525" lon="17.574965728421677"><ele>4.0</ele><time>2026-04-03T13:51:49Z</time></trkpt><trkpt lat="40.30291115836838" lon="17.574967938460247"><ele>4.0</ele><time>2026-04-03T13:51:51Z</time></trkpt><trkpt lat="40.302813639646494" lon="17.57498589375892"><ele>3.833333333333333</ele><time>2026-04-03T13:51:53Z</time></trkpt><trkpt lat="40.30272528323614" lon="17.575003502438765"><ele>3.6666666666666665</ele><time>2026-04-03T13:51:55Z</time></trkpt><trkpt lat="40.302636318020824" lon="17.57500755932944"><ele>3.5</ele><time>2026-04-03T13:51:57Z</time></trkpt><trkpt lat="40.30255576847719" lon="17.57500820525229"><ele>3.333333333333333</ele><time>2026-04-03T13:51:59Z</time></trkpt><trkpt lat="40.30247251688567" lon="17.575007805799682"><ele>3.1666666666666665</ele><time>2026-04-03T13:52:01Z</time></trkpt><trkpt lat="40.302396128054504" lon="17.575018196109845"><ele>3.0</ele><time>2026-04-03T13:52:03Z</time></trkpt><trkpt lat="40.30232412628318" lon="17.575022764622144"><ele>3.0</ele><time>2026-04-03T13:52:05Z</time></trkpt><trkpt lat="40.30225608398731" lon="17.57501144332741"><ele>3.0</ele><time>2026-04-03T13:52:07Z</time></trkpt><trkpt lat="40.30219122640157" lon="17.57500610743218"><ele>3.0</ele><time>2026-04-03T13:52:09Z</time></trkpt><trkpt lat="40.302126194115516" lon="17.575010126718677"><ele>3.0</ele><time>2026-04-03T13:52:11Z</time></trkpt><trkpt lat="40.30206247260503" lon="17.5750043153796"><ele>3.0</ele><time>2026-04-03T13:52:13Z</time></trkpt><trkpt lat="40.30195555260329" lon="17.57499817614417"><ele>3.0</ele><time>2026-04-03T13:52:16Z</time></trkpt><trkpt lat="40.30187083613993" lon="17.574986878439383"><ele>2.8</ele><time>2026-04-03T13:52:18Z</time></trkpt><trkpt lat="40.30177443608954" lon="17.57497420715963"><ele>2.5999999999999996</ele><time>2026-04-03T13:52:20Z</time></trkpt><trkpt lat="40.30167029258714" lon="17.57496950610996"><ele>2.4000000000000004</ele><time>2026-04-03T13:52:22Z</time></trkpt><trkpt lat="40.30156395472936" lon="17.57496757904012"><ele>2.2</ele><time>2026-04-03T13:52:24Z</time></trkpt><trkpt lat="40.30146214451303" lon="17.57496445045934"><ele>2.0</ele><time>2026-04-03T13:52:26Z</time></trkpt><trkpt lat="40.30135701744286" lon="17.574954920481137"><ele>3.2</ele><time>2026-04-03T13:52:28Z</time></trkpt><trkpt lat="40.30124665387388" lon="17.574955061898702"><ele>4.4</ele><time>2026-04-03T13:52:30Z</time></trkpt><trkpt lat="40.301144431450865" lon="17.574953813117148"><ele>5.6000000000000005</ele><time>2026-04-03T13:52:32Z</time></trkpt><trkpt lat="40.30106017648639" lon="17.574947433014476"><ele>6.800000000000001</ele><time>2026-04-03T13:52:34Z</time></trkpt><trkpt lat="40.3009871578928" lon="17.574939303172158"><ele>8.0</ele><time>2026-04-03T13:52:36Z</time></trkpt><trkpt lat="40.30090438817315" lon="17.57494200553696"><ele>7.999999999999999</ele><time>2026-04-03T13:52:39Z</time></trkpt><trkpt lat="40.30083316498152" lon="17.574936976597364"><ele>8.0</ele><time>2026-04-03T13:52:42Z</time></trkpt><trkpt lat="40.3007587540369" lon="17.574932349612755"><ele>8.0</ele><time>2026-04-03T13:52:45Z</time></trkpt><trkpt lat="40.30067585084206" lon="17.574914395239464"><ele>8.0</ele><time>2026-04-03T13:52:48Z</time></trkpt><trkpt lat="40.300596839223495" lon="17.57489869993489"><ele>7.999999999999999</ele><time>2026-04-03T13:52:52Z</time></trkpt><trkpt lat="40.30051895523685" lon="17.574895372831712"><ele>8.0</ele><time>2026-04-03T13:52:55Z</time></trkpt><trkpt lat="40.300454740906254" lon="17.574891838113146"><ele>8.428571428571429</ele><time>2026-04-03T13:52:58Z</time></trkpt><trkpt lat="40.30037619185042" lon="17.57487897489799"><ele>8.857142857142856</ele><time>2026-04-03T13:53:01Z</time></trkpt><trkpt lat="40.30030058108718" lon="17.57486261181994"><ele>9.285714285714285</ele><time>2026-04-03T13:53:04Z</time></trkpt><trkpt lat="40.30026317199161" lon="17.574944312581867"><ele>9.714285714285714</ele><time>2026-04-03T13:53:10Z</time></trkpt><trkpt lat="40.30027253248177" lon="17.575033165403905"><ele>10.142857142857142</ele><time>2026-04-03T13:53:13Z</time></trkpt><trkpt lat="40.300284178733094" lon="17.5751450263661"><ele>10.571428571428571</ele><time>2026-04-03T13:53:16Z</time></trkpt><trkpt lat="40.30029416113426" lon="17.575230753056307"><ele>11.0</ele><time>2026-04-03T13:53:19Z</time></trkpt><trkpt lat="40.30022159540703" lon="17.57522230532591"><ele>11.0</ele><time>2026-04-03T13:53:26Z</time></trkpt><trkpt lat="40.30023095194148" lon="17.575132529111087"><ele>11.0</ele><time>2026-04-03T13:53:28Z</time></trkpt><trkpt lat="40.30027726212794" lon="17.575051424517024"><ele>11.0</ele><time>2026-04-03T13:53:31Z</time></trkpt><trkpt lat="40.30026995946391" lon="17.574937631991457"><ele>11.0</ele><time>2026-04-03T13:53:34Z</time></trkpt><trkpt lat="40.30034443678629" lon="17.574866936849407"><ele>11.0</ele><time>2026-04-03T13:53:37Z</time></trkpt><trkpt lat="40.30041660881097" lon="17.574883849372856"><ele>11.0</ele><time>2026-04-03T13:53:40Z</time></trkpt><trkpt lat="40.30048941238371" lon="17.57488215326179"><ele>10.4</ele><time>2026-04-03T13:53:43Z</time></trkpt><trkpt lat="40.30058539505443" lon="17.57488948968874"><ele>9.8</ele><time>2026-04-03T13:53:46Z</time></trkpt><trkpt lat="40.30067709649963" lon="17.574886581098912"><ele>9.200000000000001</ele><time>2026-04-03T13:53:48Z</time></trkpt><trkpt lat="40.3007836592467" lon="17.57490558402914"><ele>8.600000000000001</ele><time>2026-04-03T13:53:50Z</time></trkpt><trkpt lat="40.300913364952386" lon="17.574918398232196"><ele>8.0</ele><time>2026-04-03T13:53:52Z</time></trkpt><trkpt lat="40.300979907074776" lon="17.574933637917987"><ele>7.999999999999999</ele><time>2026-04-03T13:53:53Z</time></trkpt><trkpt lat="40.30105950050696" lon="17.574935613398136"><ele>8.0</ele><time>2026-04-03T13:53:54Z</time></trkpt><trkpt lat="40.30113670135882" lon="17.574936167554142"><ele>8.0</ele><time>2026-04-03T13:53:55Z</time></trkpt><trkpt lat="40.301216724527585" lon="17.57494107167085"><ele>8.0</ele><time>2026-04-03T13:53:56Z</time></trkpt><trkpt lat="40.30129277718884" lon="17.57494479545912"><ele>7.999999999999999</ele><time>2026-04-03T13:53:57Z</time></trkpt><trkpt lat="40.301368208134065" lon="17.57494885465061"><ele>8.0</ele><time>2026-04-03T13:53:58Z</time></trkpt><trkpt lat="40.30143683560148" lon="17.57494698714492"><ele>6.999999999999999</ele><time>2026-04-03T13:53:59Z</time></trkpt><trkpt lat="40.30150661753101" lon="17.574949679952468"><ele>6.0</ele><time>2026-04-03T13:54:00Z</time></trkpt><trkpt lat="40.3015749139788" lon="17.574961282991946"><ele>5.0</ele><time>2026-04-03T13:54:01Z</time></trkpt><trkpt lat="40.30170654556052" lon="17.574966099004072"><ele>4.0</ele><time>2026-04-03T13:54:03Z</time></trkpt><trkpt lat="40.301779930093126" lon="17.57496836308465"><ele>3.0</ele><time>2026-04-03T13:54:04Z</time></trkpt><trkpt lat="40.30185826965029" lon="17.574973517183597"><ele>2.0</ele><time>2026-04-03T13:54:05Z</time></trkpt><trkpt lat="40.30193415900109" lon="17.57498134325597"><ele>2.0</ele><time>2026-04-03T13:54:06Z</time></trkpt><trkpt lat="40.30200296899819" lon="17.574987281003125"><ele>2.0</ele><time>2026-04-03T13:54:07Z</time></trkpt><trkpt lat="40.30212873432912" lon="17.574998717159296"><ele>2.0</ele><time>2026-04-03T13:54:09Z</time></trkpt><trkpt lat="40.302224237416624" lon="17.57500055980782"><ele>2.0</ele><time>2026-04-03T13:54:11Z</time></trkpt><trkpt lat="40.30231749186463" lon="17.574990199415755"><ele>2.0</ele><time>2026-04-03T13:54:13Z</time></trkpt><trkpt lat="40.30241571661715" lon="17.57498613971175"><ele>2.2</ele><time>2026-04-03T13:54:15Z</time></trkpt><trkpt lat="40.302512660645235" lon="17.57498327625311"><ele>2.4000000000000004</ele><time>2026-04-03T13:54:17Z</time></trkpt><trkpt lat="40.30260789929837" lon="17.574979670521078"><ele>2.5999999999999996</ele><time>2026-04-03T13:54:19Z</time></trkpt><trkpt lat="40.3027043477743" lon="17.57496639201676"><ele>2.8</ele><time>2026-04-03T13:54:21Z</time></trkpt><trkpt lat="40.302797989100505" lon="17.574969212423184"><ele>3.0</ele><time>2026-04-03T13:54:23Z</time></trkpt><trkpt lat="40.30289281740946" lon="17.57495351637314"><ele>3.0</ele><time>2026-04-03T13:54:25Z</time></trkpt><trkpt lat="40.302987960887876" lon="17.57494447662193"><ele>3.0</ele><time>2026-04-03T13:54:27Z</time></trkpt><trkpt lat="40.30308663520325" lon="17.574949330640095"><ele>3.0</ele><time>2026-04-03T13:54:29Z</time></trkpt><trkpt lat="40.303181691873206" lon="17.57493968377285"><ele>3.0</ele><time>2026-04-03T13:54:31Z</time></trkpt><trkpt lat="40.30327819074546" lon="17.574929065331965"><ele>3.0</ele><time>2026-04-03T13:54:33Z</time></trkpt><trkpt lat="40.30338003278592" lon="17.574925813750504"><ele>3.1666666666666665</ele><time>2026-04-03T13:54:35Z</time></trkpt><trkpt lat="40.303478641668576" lon="17.574914926570635"><ele>3.333333333333333</ele><time>2026-04-03T13:54:37Z</time></trkpt><trkpt lat="40.303570728761876" lon="17.57491435685875"><ele>3.5</ele><time>2026-04-03T13:54:39Z</time></trkpt><trkpt lat="40.303656104808624" lon="17.574902839758085"><ele>3.6666666666666665</ele><time>2026-04-03T13:54:41Z</time></trkpt><trkpt lat="40.303732783532354" lon="17.574884826253008"><ele>3.833333333333333</ele><time>2026-04-03T13:54:43Z</time></trkpt><trkpt lat="40.30381888953722" lon="17.574888005934184"><ele>4.0</ele><time>2026-04-03T13:54:46Z</time></trkpt><trkpt lat="40.303903497700624" lon="17.57489277172575"><ele>4.5</ele><time>2026-04-03T13:54:50Z</time></trkpt><trkpt lat="40.303982330534744" lon="17.574854773204933"><ele>5.0</ele><time>2026-04-03T13:54:53Z</time></trkpt><trkpt lat="40.304032407147716" lon="17.5747801354257"><ele>5.5</ele><time>2026-04-03T13:54:56Z</time></trkpt><trkpt lat="40.30410235515195" lon="17.574749456984105"><ele>6.0</ele><time>2026-04-03T13:55:30Z</time></trkpt><trkpt lat="40.30417768905967" lon="17.574761916783448"><ele>6.500000000000001</ele><time>2026-04-03T13:55:33Z</time></trkpt><trkpt lat="40.30426098736464" lon="17.574760612330948"><ele>7.0</ele><time>2026-04-03T13:55:36Z</time></trkpt><trkpt lat="40.30433585422368" lon="17.574738529359518"><ele>7.0</ele><time>2026-04-03T13:55:39Z</time></trkpt><trkpt lat="40.3043996357273" lon="17.574747432442713"><ele>7.0</ele><time>2026-04-03T13:55:41Z</time></trkpt><trkpt lat="40.30446772239851" lon="17.574750118089334"><ele>7.0</ele><time>2026-04-03T13:55:44Z</time></trkpt><trkpt lat="40.30454171222796" lon="17.574743481636563"><ele>7.0</ele><time>2026-04-03T13:55:47Z</time></trkpt><trkpt lat="40.30461842601749" lon="17.57472921124962"><ele>7.0</ele><time>2026-04-03T13:55:50Z</time></trkpt><trkpt lat="40.30469647068239" lon="17.574718570032182"><ele>7.0</ele><time>2026-04-03T13:55:53Z</time></trkpt><trkpt lat="40.304775113163416" lon="17.574710751005522"><ele>7.0</ele><time>2026-04-03T13:55:56Z</time></trkpt><trkpt lat="40.30487911830143" lon="17.57468998531131"><ele>7.666666666666667</ele><time>2026-04-03T13:56:00Z</time></trkpt><trkpt lat="40.304954765267006" lon="17.574678032717728"><ele>8.333333333333334</ele><time>2026-04-03T13:56:03Z</time></trkpt><trkpt lat="40.30502621810563" lon="17.574692084376604"><ele>9.0</ele><time>2026-04-03T13:56:05Z</time></trkpt><trkpt lat="40.30509633644184" lon="17.574701762474568"><ele>9.666666666666666</ele><time>2026-04-03T13:56:08Z</time></trkpt><trkpt lat="40.30502426945225" lon="17.57469335820228"><ele>10.333333333333332</ele><time>2026-04-03T13:56:16Z</time></trkpt><trkpt lat="40.30495994908434" lon="17.574720607796824"><ele>11.0</ele><time>2026-04-03T13:56:19Z</time></trkpt><trkpt lat="40.30482105854787" lon="17.574743607034204"><ele>11.0</ele><time>2026-04-03T13:56:23Z</time></trkpt><trkpt lat="40.30475001720196" lon="17.574745441556008"><ele>11.0</ele><time>2026-04-03T13:56:25Z</time></trkpt><trkpt lat="40.304667827216235" lon="17.574737977508224"><ele>11.0</ele><time>2026-04-03T13:56:27Z</time></trkpt><trkpt lat="40.30457667421656" lon="17.57473984148284"><ele>11.0</ele><time>2026-04-03T13:56:29Z</time></trkpt><trkpt lat="40.304485700807426" lon="17.57475873755325"><ele>11.0</ele><time>2026-04-03T13:56:31Z</time></trkpt><trkpt lat="40.30435647183631" lon="17.574759791332802"><ele>10.5</ele><time>2026-04-03T13:56:34Z</time></trkpt><trkpt lat="40.30426309727499" lon="17.574770125069115"><ele>10.0</ele><time>2026-04-03T13:56:36Z</time></trkpt><trkpt lat="40.304175426483496" lon="17.57477719910065"><ele>9.5</ele><time>2026-04-03T13:56:38Z</time></trkpt><trkpt lat="40.30408827834625" lon="17.574780048688137"><ele>9.0</ele><time>2026-04-03T13:56:40Z</time></trkpt><trkpt lat="40.304009238455706" lon="17.57472567898451"><ele>8.5</ele><time>2026-04-03T13:56:42Z</time></trkpt><trkpt lat="40.30403634985663" lon="17.57462720873973"><ele>8.0</ele><time>2026-04-03T13:56:43Z</time></trkpt><trkpt lat="40.304032300347906" lon="17.574510793862704"><ele>7.999999999999999</ele><time>2026-04-03T13:56:45Z</time></trkpt><trkpt lat="40.30405556473917" lon="17.574376277077974"><ele>8.0</ele><time>2026-04-03T13:56:47Z</time></trkpt><trkpt lat="40.3040561392434" lon="17.574206125432323"><ele>8.0</ele><time>2026-04-03T13:56:49Z</time></trkpt><trkpt lat="40.304052614019135" lon="17.574110809244342"><ele>8.0</ele><time>2026-04-03T13:56:50Z</time></trkpt><trkpt lat="40.30406555992797" lon="17.57402315226802"><ele>7.999999999999999</ele><time>2026-04-03T13:56:51Z</time></trkpt><trkpt lat="40.30406845168338" lon="17.57393338211711"><ele>8.0</ele><time>2026-04-03T13:56:52Z</time></trkpt><trkpt lat="40.30404562852202" lon="17.573840385144305"><ele>7.999999999999999</ele><time>2026-04-03T13:56:53Z</time></trkpt><trkpt lat="40.30404400576737" lon="17.57375413246838"><ele>8.0</ele><time>2026-04-03T13:56:54Z</time></trkpt><trkpt lat="40.30403909607119" lon="17.573597894053375"><ele>8.0</ele><time>2026-04-03T13:56:56Z</time></trkpt><trkpt lat="40.304045827918664" lon="17.57349193296289"><ele>8.0</ele><time>2026-04-03T13:56:59Z</time></trkpt><trkpt lat="40.304051985346625" lon="17.57340346413654"><ele>7.999999999999999</ele><time>2026-04-03T13:57:03Z</time></trkpt><trkpt lat="40.30405379368845" lon="17.573319571232084"><ele>8.0</ele><time>2026-04-03T13:57:08Z</time></trkpt><trkpt lat="40.30406438615261" lon="17.573413457866465"><ele>8.5</ele><time>2026-04-03T13:57:21Z</time></trkpt><trkpt lat="40.304222646544076" lon="17.573425706290376"><ele>9.0</ele><time>2026-04-03T13:57:27Z</time></trkpt><trkpt lat="40.30431487457952" lon="17.57345081834669"><ele>9.5</ele><time>2026-04-03T13:57:30Z</time></trkpt><trkpt lat="40.30443198782057" lon="17.573416475583482"><ele>10.0</ele><time>2026-04-03T13:57:33Z</time></trkpt><trkpt lat="40.304515710666955" lon="17.57340391760042"><ele>10.0</ele><time>2026-04-03T13:57:35Z</time></trkpt><trkpt lat="40.30458888882121" lon="17.573374559772724"><ele>10.0</ele><time>2026-04-03T13:57:38Z</time></trkpt><trkpt lat="40.30471642557383" lon="17.57337501508506"><ele>10.0</ele><time>2026-04-03T13:57:39Z</time></trkpt><trkpt lat="40.30478064820786" lon="17.573378007896252"><ele>10.0</ele><time>2026-04-03T13:57:41Z</time></trkpt><trkpt lat="40.30484819167609" lon="17.57336848115381"><ele>10.0</ele><time>2026-04-03T13:57:43Z</time></trkpt><trkpt lat="40.304918015042766" lon="17.573365383213027"><ele>10.0</ele><time>2026-04-03T13:57:45Z</time></trkpt><trkpt lat="40.30498970738399" lon="17.57335793205942"><ele>10.166666666666668</ele><time>2026-04-03T13:57:47Z</time></trkpt><trkpt lat="40.305064230020506" lon="17.573348373768383"><ele>10.333333333333334</ele><time>2026-04-03T13:57:49Z</time></trkpt><trkpt lat="40.305142468375465" lon="17.573347764998733"><ele>10.5</ele><time>2026-04-03T13:57:51Z</time></trkpt><trkpt lat="40.30521071793707" lon="17.573356926747916"><ele>10.666666666666666</ele><time>2026-04-03T13:57:53Z</time></trkpt><trkpt lat="40.305280971350875" lon="17.573378550959962"><ele>10.833333333333332</ele><time>2026-04-03T13:57:55Z</time></trkpt><trkpt lat="40.305347347565075" lon="17.573398979358174"><ele>11.0</ele><time>2026-04-03T13:57:57Z</time></trkpt><trkpt lat="40.30544114838814" lon="17.573407205257734"><ele>11.0</ele><time>2026-04-03T13:58:00Z</time></trkpt><trkpt lat="40.30551394729031" lon="17.57344011305156"><ele>11.0</ele><time>2026-04-03T13:58:03Z</time></trkpt><trkpt lat="40.30558138945669" lon="17.5734610678916"><ele>11.0</ele><time>2026-04-03T13:58:05Z</time></trkpt><trkpt lat="40.30564837569433" lon="17.57345866983719"><ele>11.0</ele><time>2026-04-03T13:58:08Z</time></trkpt><trkpt lat="40.30571084607551" lon="17.573445720221226"><ele>11.0</ele><time>2026-04-03T13:58:11Z</time></trkpt><trkpt lat="40.30578761529933" lon="17.57343755388899"><ele>11.0</ele><time>2026-04-03T13:58:15Z</time></trkpt><trkpt lat="40.305846200773075" lon="17.573402345636627"><ele>11.0</ele><time>2026-04-03T13:58:18Z</time></trkpt><trkpt lat="40.305913506177134" lon="17.573414133437893"><ele>11.285714285714286</ele><time>2026-04-03T13:58:21Z</time></trkpt><trkpt lat="40.30599498145886" lon="17.573380842081193"><ele>11.571428571428571</ele><time>2026-04-03T13:58:24Z</time></trkpt><trkpt lat="40.30605776095063" lon="17.57335670562898"><ele>11.857142857142858</ele><time>2026-04-03T13:58:27Z</time></trkpt><trkpt lat="40.30611490020387" lon="17.57331939836874"><ele>12.142857142857142</ele><time>2026-04-03T13:58:31Z</time></trkpt><trkpt lat="40.30611319364698" lon="17.573231792718747"><ele>12.428571428571429</ele><time>2026-04-03T13:58:35Z</time></trkpt><trkpt lat="40.306119616081894" lon="17.57313377771247"><ele>12.714285714285714</ele><time>2026-04-03T13:58:41Z</time></trkpt><trkpt lat="40.30612805555313" lon="17.57303969433472"><ele>13.0</ele><time>2026-04-03T13:58:46Z</time></trkpt><trkpt lat="40.306133354430585" lon="17.572950547625663"><ele>13.0</ele><time>2026-04-03T13:58:49Z</time></trkpt><trkpt lat="40.30614054470397" lon="17.57303362029943"><ele>13.0</ele><time>2026-04-03T13:59:00Z</time></trkpt><trkpt lat="40.30615267197265" lon="17.57311995620723"><ele>13.0</ele><time>2026-04-03T13:59:06Z</time></trkpt><trkpt lat="40.30616321936481" lon="17.573216439721783"><ele>13.0</ele><time>2026-04-03T13:59:11Z</time></trkpt></trkseg></trk></gpx>